sensor_id;sensor_type;location;lat;lon;timestamp;temperature;humidity
16871;DHT22;8552;48.120;-1.456;2023-04-03T00:01:37;4.20;99.90
16871;DHT22;8552;48.120;-1.456;2023-04-03T00:04:04;4.20;99.90
16871;DHT22;8552;48.120;-1.456;2023-04-03T00:06:31;4.10;99.90
16871;DHT22;8552;48.120;-1.456;2023-04-03T00:08:57;4.10;99.90
16871;DHT22;8552;48.120;-1.456;2023-04-03T00:11:23;4.00;99.90
16871;DHT22;8552;48.120;-1.456;2023-04-03T00:13:49;4.00;99.90
16871;DHT22;8552;48.120;-1.456;2023-04-03T00:16:15;4.00;99.90
16871;DHT22;8552;48.120;-1.456;2023-04-03T00:18:41;4.00;99.90
16871;DHT22;8552;48.120;-1.456;2023-04-03T00:21:09;4.00;99.90
16871;DHT22;8552;48.120;-1.456;2023-04-03T00:23:35;3.90;99.90
16871;DHT22;8552;48.120;-1.456;2023-04-03T00:26:01;3.90;99.90
16871;DHT22;8552;48.120;-1.456;2023-04-03T00:28:27;3.80;99.90
16871;DHT22;8552;48.120;-1.456;2023-04-03T00:30:52;3.80;99.90
16871;DHT22;8552;48.120;-1.456;2023-04-03T00:33:19;4.00;99.90
16871;DHT22;8552;48.120;-1.456;2023-04-03T00:35:48;4.00;99.90
16871;DHT22;8552;48.120;-1.456;2023-04-03T00:38:15;4.00;99.90
16871;DHT22;8552;48.120;-1.456;2023-04-03T00:40:46;3.90;99.90
16871;DHT22;8552;48.120;-1.456;2023-04-03T00:43:15;3.90;99.90
16871;DHT22;8552;48.120;-1.456;2023-04-03T00:45:43;3.80;99.90
16871;DHT22;8552;48.120;-1.456;2023-04-03T00:48:13;3.80;99.90
16871;DHT22;8552;48.120;-1.456;2023-04-03T00:50:41;3.70;99.90
16871;DHT22;8552;48.120;-1.456;2023-04-03T00:53:13;3.70;99.90
16871;DHT22;8552;48.120;-1.456;2023-04-03T00:55:40;3.70;99.90
16871;DHT22;8552;48.120;-1.456;2023-04-03T00:58:07;3.60;99.90
16871;DHT22;8552;48.120;-1.456;2023-04-03T01:00:34;3.60;99.90
16871;DHT22;8552;48.120;-1.456;2023-04-03T01:03:01;3.50;99.90
16871;DHT22;8552;48.120;-1.456;2023-04-03T01:05:26;3.50;99.90
16871;DHT22;8552;48.120;-1.456;2023-04-03T01:07:52;3.40;99.90
16871;DHT22;8552;48.120;-1.456;2023-04-03T01:10:18;3.40;99.90
16871;DHT22;8552;48.120;-1.456;2023-04-03T01:12:48;3.40;99.90
16871;DHT22;8552;48.120;-1.456;2023-04-03T01:15:20;3.40;99.90
16871;DHT22;8552;48.120;-1.456;2023-04-03T01:17:49;3.30;99.90
16871;DHT22;8552;48.120;-1.456;2023-04-03T01:23:06;3.20;99.90
16871;DHT22;8552;48.120;-1.456;2023-04-03T01:25:31;3.20;99.90
16871;DHT22;8552;48.120;-1.456;2023-04-03T01:27:57;3.20;99.90
16871;DHT22;8552;48.120;-1.456;2023-04-03T01:30:31;3.10;99.90
16871;DHT22;8552;48.120;-1.456;2023-04-03T01:32:57;3.10;99.90
16871;DHT22;8552;48.120;-1.456;2023-04-03T01:35:23;3.10;99.90
16871;DHT22;8552;48.120;-1.456;2023-04-03T01:37:48;3.00;99.90
16871;DHT22;8552;48.120;-1.456;2023-04-03T01:40:14;2.90;99.90
16871;DHT22;8552;48.120;-1.456;2023-04-03T01:42:40;2.90;99.90
16871;DHT22;8552;48.120;-1.456;2023-04-03T01:45:06;2.80;99.90
16871;DHT22;8552;48.120;-1.456;2023-04-03T01:47:32;2.80;99.90
16871;DHT22;8552;48.120;-1.456;2023-04-03T01:49:58;2.80;99.90
16871;DHT22;8552;48.120;-1.456;2023-04-03T01:52:23;2.80;99.90
16871;DHT22;8552;48.120;-1.456;2023-04-03T01:54:49;2.80;99.90
16871;DHT22;8552;48.120;-1.456;2023-04-03T01:57:16;2.70;99.90
16871;DHT22;8552;48.120;-1.456;2023-04-03T01:59:42;2.70;99.90
16871;DHT22;8552;48.120;-1.456;2023-04-03T02:02:07;2.60;99.90
16871;DHT22;8552;48.120;-1.456;2023-04-03T02:04:33;2.60;99.90
16871;DHT22;8552;48.120;-1.456;2023-04-03T02:06:59;2.60;99.90
16871;DHT22;8552;48.120;-1.456;2023-04-03T02:09:25;2.50;99.90
16871;DHT22;8552;48.120;-1.456;2023-04-03T02:11:52;2.50;99.90
16871;DHT22;8552;48.120;-1.456;2023-04-03T02:14:17;2.50;99.90
16871;DHT22;8552;48.120;-1.456;2023-04-03T02:16:43;2.50;99.90
16871;DHT22;8552;48.120;-1.456;2023-04-03T02:19:09;2.40;99.90
16871;DHT22;8552;48.120;-1.456;2023-04-03T02:21:35;2.40;99.90
16871;DHT22;8552;48.120;-1.456;2023-04-03T02:24:00;2.40;99.90
16871;DHT22;8552;48.120;-1.456;2023-04-03T02:26:26;2.40;99.90
16871;DHT22;8552;48.120;-1.456;2023-04-03T02:28:52;2.30;99.90
16871;DHT22;8552;48.120;-1.456;2023-04-03T02:31:18;2.30;99.90
16871;DHT22;8552;48.120;-1.456;2023-04-03T02:33:43;2.30;99.90
16871;DHT22;8552;48.120;-1.456;2023-04-03T02:36:09;2.20;99.90
16871;DHT22;8552;48.120;-1.456;2023-04-03T02:38:36;2.20;99.90
16871;DHT22;8552;48.120;-1.456;2023-04-03T02:41:06;2.20;99.90
16871;DHT22;8552;48.120;-1.456;2023-04-03T02:43:32;2.20;99.90
16871;DHT22;8552;48.120;-1.456;2023-04-03T02:45:58;2.10;99.90
16871;DHT22;8552;48.120;-1.456;2023-04-03T02:48:24;2.20;99.90
16871;DHT22;8552;48.120;-1.456;2023-04-03T02:50:51;2.10;99.90
16871;DHT22;8552;48.120;-1.456;2023-04-03T02:53:17;2.10;99.90
16871;DHT22;8552;48.120;-1.456;2023-04-03T02:55:44;2.10;99.90
16871;DHT22;8552;48.120;-1.456;2023-04-03T02:58:09;2.00;99.90
16871;DHT22;8552;48.120;-1.456;2023-04-03T03:00:35;2.00;99.90
16871;DHT22;8552;48.120;-1.456;2023-04-03T03:03:01;2.00;99.90
16871;DHT22;8552;48.120;-1.456;2023-04-03T03:05:27;2.00;99.90
16871;DHT22;8552;48.120;-1.456;2023-04-03T03:07:53;2.00;99.90
16871;DHT22;8552;48.120;-1.456;2023-04-03T03:10:19;1.90;99.90
16871;DHT22;8552;48.120;-1.456;2023-04-03T03:12:45;1.90;99.90
16871;DHT22;8552;48.120;-1.456;2023-04-03T03:15:12;1.90;99.90
16871;DHT22;8552;48.120;-1.456;2023-04-03T03:17:37;1.90;99.90
16871;DHT22;8552;48.120;-1.456;2023-04-03T03:20:05;1.90;99.90
16871;DHT22;8552;48.120;-1.456;2023-04-03T03:22:31;1.90;99.90
16871;DHT22;8552;48.120;-1.456;2023-04-03T03:24:57;1.80;99.90
16871;DHT22;8552;48.120;-1.456;2023-04-03T03:27:22;1.80;99.90
16871;DHT22;8552;48.120;-1.456;2023-04-03T03:29:49;1.80;99.90
16871;DHT22;8552;48.120;-1.456;2023-04-03T03:32:15;1.80;99.90
16871;DHT22;8552;48.120;-1.456;2023-04-03T03:34:40;1.70;99.90
16871;DHT22;8552;48.120;-1.456;2023-04-03T03:37:06;1.60;99.90
16871;DHT22;8552;48.120;-1.456;2023-04-03T03:39:32;1.60;99.90
16871;DHT22;8552;48.120;-1.456;2023-04-03T03:41:58;1.60;99.90
16871;DHT22;8552;48.120;-1.456;2023-04-03T03:44:23;1.60;99.90
16871;DHT22;8552;48.120;-1.456;2023-04-03T03:46:49;1.50;99.90
16871;DHT22;8552;48.120;-1.456;2023-04-03T03:49:15;1.50;99.90
16871;DHT22;8552;48.120;-1.456;2023-04-03T03:51:40;1.50;99.90
16871;DHT22;8552;48.120;-1.456;2023-04-03T03:54:06;1.50;99.90
16871;DHT22;8552;48.120;-1.456;2023-04-03T03:56:33;1.50;99.90
16871;DHT22;8552;48.120;-1.456;2023-04-03T03:58:59;1.40;99.90
16871;DHT22;8552;48.120;-1.456;2023-04-03T04:01:24;1.40;99.90
16871;DHT22;8552;48.120;-1.456;2023-04-03T04:03:50;1.40;99.90
16871;DHT22;8552;48.120;-1.456;2023-04-03T04:06:16;1.40;99.90
16871;DHT22;8552;48.120;-1.456;2023-04-03T04:08:42;1.30;99.90
16871;DHT22;8552;48.120;-1.456;2023-04-03T04:11:08;1.30;99.90
16871;DHT22;8552;48.120;-1.456;2023-04-03T04:13:34;1.30;99.90
16871;DHT22;8552;48.120;-1.456;2023-04-03T04:16:00;1.30;99.90
16871;DHT22;8552;48.120;-1.456;2023-04-03T04:18:26;1.30;99.90
16871;DHT22;8552;48.120;-1.456;2023-04-03T04:20:52;1.30;99.90
16871;DHT22;8552;48.120;-1.456;2023-04-03T04:23:18;1.30;99.90
16871;DHT22;8552;48.120;-1.456;2023-04-03T04:25:45;1.30;99.90
16871;DHT22;8552;48.120;-1.456;2023-04-03T04:28:11;1.30;99.90
16871;DHT22;8552;48.120;-1.456;2023-04-03T04:30:38;1.30;99.90
16871;DHT22;8552;48.120;-1.456;2023-04-03T04:33:03;1.40;99.90
16871;DHT22;8552;48.120;-1.456;2023-04-03T04:35:29;1.40;99.90
16871;DHT22;8552;48.120;-1.456;2023-04-03T04:37:55;1.50;99.90
16871;DHT22;8552;48.120;-1.456;2023-04-03T04:40:21;1.50;99.90
16871;DHT22;8552;48.120;-1.456;2023-04-03T04:42:47;1.50;99.90
16871;DHT22;8552;48.120;-1.456;2023-04-03T04:45:13;1.60;99.90
16871;DHT22;8552;48.120;-1.456;2023-04-03T04:47:40;1.70;99.90
16871;DHT22;8552;48.120;-1.456;2023-04-03T04:50:06;1.70;99.90
16871;DHT22;8552;48.120;-1.456;2023-04-03T04:52:32;1.70;99.90
16871;DHT22;8552;48.120;-1.456;2023-04-03T04:54:57;1.70;99.90
16871;DHT22;8552;48.120;-1.456;2023-04-03T04:57:23;1.60;99.90
16871;DHT22;8552;48.120;-1.456;2023-04-03T04:59:49;1.70;99.90
16871;DHT22;8552;48.120;-1.456;2023-04-03T05:02:15;1.70;99.90
16871;DHT22;8552;48.120;-1.456;2023-04-03T05:04:40;1.70;99.90
16871;DHT22;8552;48.120;-1.456;2023-04-03T05:07:06;1.70;99.90
16871;DHT22;8552;48.120;-1.456;2023-04-03T05:09:32;1.70;99.90
16871;DHT22;8552;48.120;-1.456;2023-04-03T05:11:57;1.70;99.90
16871;DHT22;8552;48.120;-1.456;2023-04-03T05:14:23;1.80;99.90
16871;DHT22;8552;48.120;-1.456;2023-04-03T05:16:49;1.80;99.90
16871;DHT22;8552;48.120;-1.456;2023-04-03T05:19:18;1.80;99.90
16871;DHT22;8552;48.120;-1.456;2023-04-03T05:21:44;1.90;99.90
16871;DHT22;8552;48.120;-1.456;2023-04-03T05:24:10;1.90;99.90
16871;DHT22;8552;48.120;-1.456;2023-04-03T05:26:36;1.90;99.90
16871;DHT22;8552;48.120;-1.456;2023-04-03T05:29:02;2.00;99.90
16871;DHT22;8552;48.120;-1.456;2023-04-03T05:31:28;2.00;99.90
16871;DHT22;8552;48.120;-1.456;2023-04-03T05:33:55;2.00;99.90
16871;DHT22;8552;48.120;-1.456;2023-04-03T05:36:21;2.00;99.90
16871;DHT22;8552;48.120;-1.456;2023-04-03T05:38:47;2.10;99.90
16871;DHT22;8552;48.120;-1.456;2023-04-03T05:41:14;2.10;99.90
16871;DHT22;8552;48.120;-1.456;2023-04-03T05:43:40;2.10;99.90
16871;DHT22;8552;48.120;-1.456;2023-04-03T05:46:14;2.20;99.90
16871;DHT22;8552;48.120;-1.456;2023-04-03T05:48:40;2.20;99.90
16871;DHT22;8552;48.120;-1.456;2023-04-03T05:51:06;2.20;99.90
16871;DHT22;8552;48.120;-1.456;2023-04-03T05:53:35;2.30;99.90
16871;DHT22;8552;48.120;-1.456;2023-04-03T05:56:04;2.30;99.90
16871;DHT22;8552;48.120;-1.456;2023-04-03T05:58:30;2.30;99.90
16871;DHT22;8552;48.120;-1.456;2023-04-03T06:00:56;2.40;99.90
16871;DHT22;8552;48.120;-1.456;2023-04-03T06:03:22;2.40;99.90
16871;DHT22;8552;48.120;-1.456;2023-04-03T06:05:48;2.40;99.90
16871;DHT22;8552;48.120;-1.456;2023-04-03T06:08:14;2.40;99.90
16871;DHT22;8552;48.120;-1.456;2023-04-03T06:10:40;2.50;99.90
16871;DHT22;8552;48.120;-1.456;2023-04-03T06:13:05;2.50;99.90
16871;DHT22;8552;48.120;-1.456;2023-04-03T06:15:31;2.60;99.90
16871;DHT22;8552;48.120;-1.456;2023-04-03T06:17:57;2.60;99.90
16871;DHT22;8552;48.120;-1.456;2023-04-03T06:20:24;2.70;99.90
16871;DHT22;8552;48.120;-1.456;2023-04-03T06:22:50;2.70;99.90
16871;DHT22;8552;48.120;-1.456;2023-04-03T06:25:16;2.80;99.90
16871;DHT22;8552;48.120;-1.456;2023-04-03T06:27:44;2.80;99.90
16871;DHT22;8552;48.120;-1.456;2023-04-03T06:30:10;2.90;99.90
16871;DHT22;8552;48.120;-1.456;2023-04-03T06:32:37;2.90;99.90
16871;DHT22;8552;48.120;-1.456;2023-04-03T06:35:03;3.00;99.90
16871;DHT22;8552;48.120;-1.456;2023-04-03T06:37:30;3.10;99.90
16871;DHT22;8552;48.120;-1.456;2023-04-03T06:39:55;3.10;99.90
16871;DHT22;8552;48.120;-1.456;2023-04-03T06:42:22;3.20;99.90
16871;DHT22;8552;48.120;-1.456;2023-04-03T06:44:48;3.20;99.90
16871;DHT22;8552;48.120;-1.456;2023-04-03T06:47:15;3.20;99.90
16871;DHT22;8552;48.120;-1.456;2023-04-03T06:49:41;3.30;99.90
16871;DHT22;8552;48.120;-1.456;2023-04-03T06:52:07;3.40;99.90
16871;DHT22;8552;48.120;-1.456;2023-04-03T06:54:33;3.40;99.90
16871;DHT22;8552;48.120;-1.456;2023-04-03T06:56:59;3.50;99.90
16871;DHT22;8552;48.120;-1.456;2023-04-03T06:59:25;3.50;99.90
16871;DHT22;8552;48.120;-1.456;2023-04-03T07:01:51;3.60;99.90
16871;DHT22;8552;48.120;-1.456;2023-04-03T07:04:17;3.60;99.90
16871;DHT22;8552;48.120;-1.456;2023-04-03T07:06:44;3.70;99.90
16871;DHT22;8552;48.120;-1.456;2023-04-03T07:09:10;3.80;99.90
16871;DHT22;8552;48.120;-1.456;2023-04-03T07:11:36;3.80;99.90
16871;DHT22;8552;48.120;-1.456;2023-04-03T07:14:02;3.90;99.90
16871;DHT22;8552;48.120;-1.456;2023-04-03T07:16:28;3.90;99.90
16871;DHT22;8552;48.120;-1.456;2023-04-03T07:18:56;3.90;99.90
16871;DHT22;8552;48.120;-1.456;2023-04-03T07:21:23;4.00;99.90
16871;DHT22;8552;48.120;-1.456;2023-04-03T07:23:48;4.00;99.90
16871;DHT22;8552;48.120;-1.456;2023-04-03T07:26:14;4.10;99.90
16871;DHT22;8552;48.120;-1.456;2023-04-03T07:28:40;4.20;99.90
16871;DHT22;8552;48.120;-1.456;2023-04-03T07:31:10;4.20;99.90
16871;DHT22;8552;48.120;-1.456;2023-04-03T07:33:39;4.30;99.90
16871;DHT22;8552;48.120;-1.456;2023-04-03T07:36:05;4.30;99.90
16871;DHT22;8552;48.120;-1.456;2023-04-03T07:38:32;4.30;99.90
16871;DHT22;8552;48.120;-1.456;2023-04-03T07:40:58;4.40;99.90
16871;DHT22;8552;48.120;-1.456;2023-04-03T07:43:24;4.40;99.90
16871;DHT22;8552;48.120;-1.456;2023-04-03T07:45:53;4.50;99.90
16871;DHT22;8552;48.120;-1.456;2023-04-03T07:48:24;4.50;99.90
16871;DHT22;8552;48.120;-1.456;2023-04-03T07:50:50;4.50;99.90
16871;DHT22;8552;48.120;-1.456;2023-04-03T07:53:17;4.60;99.90
16871;DHT22;8552;48.120;-1.456;2023-04-03T07:55:46;4.60;99.90
16871;DHT22;8552;48.120;-1.456;2023-04-03T07:58:14;4.60;99.90
16871;DHT22;8552;48.120;-1.456;2023-04-03T08:00:40;4.70;99.90
16871;DHT22;8552;48.120;-1.456;2023-04-03T08:03:08;4.70;99.90
16871;DHT22;8552;48.120;-1.456;2023-04-03T08:05:39;4.80;99.90
16871;DHT22;8552;48.120;-1.456;2023-04-03T08:08:05;4.90;99.90
16871;DHT22;8552;48.120;-1.456;2023-04-03T08:10:32;4.90;99.90
16871;DHT22;8552;48.120;-1.456;2023-04-03T08:12:59;5.00;99.90
16871;DHT22;8552;48.120;-1.456;2023-04-03T08:15:25;5.00;99.90
16871;DHT22;8552;48.120;-1.456;2023-04-03T08:17:50;4.90;99.90
16871;DHT22;8552;48.120;-1.456;2023-04-03T08:20:17;4.90;99.90
16871;DHT22;8552;48.120;-1.456;2023-04-03T08:22:42;4.90;99.90
16871;DHT22;8552;48.120;-1.456;2023-04-03T08:25:09;4.90;99.90
16871;DHT22;8552;48.120;-1.456;2023-04-03T08:27:35;4.90;99.90
16871;DHT22;8552;48.120;-1.456;2023-04-03T08:30:00;5.00;99.90
16871;DHT22;8552;48.120;-1.456;2023-04-03T08:32:26;5.00;99.90
16871;DHT22;8552;48.120;-1.456;2023-04-03T08:34:52;5.10;99.90
16871;DHT22;8552;48.120;-1.456;2023-04-03T08:37:18;5.00;99.90
16871;DHT22;8552;48.120;-1.456;2023-04-03T08:39:44;5.10;99.90
16871;DHT22;8552;48.120;-1.456;2023-04-03T08:45:09;5.10;99.90
16871;DHT22;8552;48.120;-1.456;2023-04-03T08:47:40;5.10;99.90
16871;DHT22;8552;48.120;-1.456;2023-04-03T08:50:17;5.20;99.90
16871;DHT22;8552;48.120;-1.456;2023-04-03T08:52:52;5.10;99.90
16871;DHT22;8552;48.120;-1.456;2023-04-03T08:55:49;5.10;99.90
16871;DHT22;8552;48.120;-1.456;2023-04-03T08:58:19;5.10;99.90
16871;DHT22;8552;48.120;-1.456;2023-04-03T09:03:21;5.00;99.90
16871;DHT22;8552;48.120;-1.456;2023-04-03T09:05:55;5.10;99.90
16871;DHT22;8552;48.120;-1.456;2023-04-03T09:11:44;5.30;99.90
16871;DHT22;8552;48.120;-1.456;2023-04-03T09:14:02;5.50;99.90
16871;DHT22;8552;48.120;-1.456;2023-04-03T09:16:42;5.50;99.90
16871;DHT22;8552;48.120;-1.456;2023-04-03T09:21:39;5.60;99.90
16871;DHT22;8552;48.120;-1.456;2023-04-03T09:24:10;5.70;99.90
16871;DHT22;8552;48.120;-1.456;2023-04-03T09:29:17;5.70;99.90
16871;DHT22;8552;48.120;-1.456;2023-04-03T09:31:44;5.60;99.90
16871;DHT22;8552;48.120;-1.456;2023-04-03T09:34:25;5.70;99.90
16871;DHT22;8552;48.120;-1.456;2023-04-03T09:36:53;5.80;99.90
16871;DHT22;8552;48.120;-1.456;2023-04-03T09:39:24;5.80;99.90
16871;DHT22;8552;48.120;-1.456;2023-04-03T09:42:03;5.80;99.90
16871;DHT22;8552;48.120;-1.456;2023-04-03T09:44:34;5.80;99.90
16871;DHT22;8552;48.120;-1.456;2023-04-03T09:47:24;5.80;99.90
16871;DHT22;8552;48.120;-1.456;2023-04-03T09:49:50;5.80;99.90
16871;DHT22;8552;48.120;-1.456;2023-04-03T09:52:25;5.70;99.90
16871;DHT22;8552;48.120;-1.456;2023-04-03T09:54:51;5.90;99.90
16871;DHT22;8552;48.120;-1.456;2023-04-03T09:57:18;5.90;99.90
16871;DHT22;8552;48.120;-1.456;2023-04-03T10:00:00;6.00;99.90
16871;DHT22;8552;48.120;-1.456;2023-04-03T10:02:33;6.10;99.90
16871;DHT22;8552;48.120;-1.456;2023-04-03T10:05:00;6.20;99.90
16871;DHT22;8552;48.120;-1.456;2023-04-03T10:07:36;6.10;99.90
16871;DHT22;8552;48.120;-1.456;2023-04-03T10:10:23;6.20;99.90
16871;DHT22;8552;48.120;-1.456;2023-04-03T10:13:05;6.30;99.90
16871;DHT22;8552;48.120;-1.456;2023-04-03T10:15:40;6.20;99.90
16871;DHT22;8552;48.120;-1.456;2023-04-03T10:18:58;6.40;99.90
16871;DHT22;8552;48.120;-1.456;2023-04-03T10:24:24;6.60;99.90
16871;DHT22;8552;48.120;-1.456;2023-04-03T10:27:08;7.10;99.90
16871;DHT22;8552;48.120;-1.456;2023-04-03T10:35:18;7.50;99.90
16871;DHT22;8552;48.120;-1.456;2023-04-03T10:40:37;7.50;99.90
16871;DHT22;8552;48.120;-1.456;2023-04-03T10:46:00;8.20;99.90
16871;DHT22;8552;48.120;-1.456;2023-04-03T10:51:39;8.40;99.90
16871;DHT22;8552;48.120;-1.456;2023-04-03T10:54:25;8.50;99.90
16871;DHT22;8552;48.120;-1.456;2023-04-03T10:57:03;8.60;99.90
16871;DHT22;8552;48.120;-1.456;2023-04-03T10:59:33;9.00;99.90
16871;DHT22;8552;48.120;-1.456;2023-04-03T11:04:36;8.60;99.90
16871;DHT22;8552;48.120;-1.456;2023-04-03T11:07:17;8.40;99.90
16871;DHT22;8552;48.120;-1.456;2023-04-03T11:09:46;8.40;99.90
16871;DHT22;8552;48.120;-1.456;2023-04-03T11:12:19;8.60;99.90
16871;DHT22;8552;48.120;-1.456;2023-04-03T11:14:48;8.60;99.90
16871;DHT22;8552;48.120;-1.456;2023-04-03T11:17:21;7.90;99.90
16871;DHT22;8552;48.120;-1.456;2023-04-03T11:22:42;8.80;99.90
16871;DHT22;8552;48.120;-1.456;2023-04-03T11:27:58;9.40;99.90
16871;DHT22;8552;48.120;-1.456;2023-04-03T11:36:23;9.80;99.90
16871;DHT22;8552;48.120;-1.456;2023-04-03T11:39:07;10.00;99.90
16871;DHT22;8552;48.120;-1.456;2023-04-03T11:41:36;10.50;99.90
16871;DHT22;8552;48.120;-1.456;2023-04-03T11:44:06;10.60;99.90
16871;DHT22;8552;48.120;-1.456;2023-04-03T11:46:54;10.30;99.90
16871;DHT22;8552;48.120;-1.456;2023-04-03T11:49:55;10.40;99.90
16871;DHT22;8552;48.120;-1.456;2023-04-03T12:08:54;11.50;99.90
16871;DHT22;8552;48.120;-1.456;2023-04-03T12:11:29;11.50;99.90
16871;DHT22;8552;48.120;-1.456;2023-04-03T12:16:26;12.00;99.90
16871;DHT22;8552;48.120;-1.456;2023-04-03T12:26:44;12.50;99.90
16871;DHT22;8552;48.120;-1.456;2023-04-03T12:29:27;12.70;99.90
16871;DHT22;8552;48.120;-1.456;2023-04-03T12:32:17;12.70;99.90
16871;DHT22;8552;48.120;-1.456;2023-04-03T12:35:14;12.80;99.90
16871;DHT22;8552;48.120;-1.456;2023-04-03T12:38:23;12.80;99.90
16871;DHT22;8552;48.120;-1.456;2023-04-03T12:46:43;13.00;99.90
16871;DHT22;8552;48.120;-1.456;2023-04-03T12:51:50;13.00;99.90
16871;DHT22;8552;48.120;-1.456;2023-04-03T12:54:23;13.10;99.90
16871;DHT22;8552;48.120;-1.456;2023-04-03T12:56:51;12.90;99.90
16871;DHT22;8552;48.120;-1.456;2023-04-03T12:59:22;13.50;99.90
16871;DHT22;8552;48.120;-1.456;2023-04-03T13:02:01;13.90;99.90
16871;DHT22;8552;48.120;-1.456;2023-04-03T13:04:28;14.30;99.90
16871;DHT22;8552;48.120;-1.456;2023-04-03T13:06:54;13.90;99.90
16871;DHT22;8552;48.120;-1.456;2023-04-03T13:09:29;13.70;99.90
16871;DHT22;8552;48.120;-1.456;2023-04-03T13:12:15;13.10;99.90
16871;DHT22;8552;48.120;-1.456;2023-04-03T13:14:53;13.30;99.90
16871;DHT22;8552;48.120;-1.456;2023-04-03T13:17:19;13.50;99.90
16871;DHT22;8552;48.120;-1.456;2023-04-03T13:19:47;13.80;99.90
16871;DHT22;8552;48.120;-1.456;2023-04-03T13:22:36;13.70;99.90
16871;DHT22;8552;48.120;-1.456;2023-04-03T13:25:07;12.90;99.90
16871;DHT22;8552;48.120;-1.456;2023-04-03T13:27:34;13.60;99.90
16871;DHT22;8552;48.120;-1.456;2023-04-03T13:30:01;14.10;99.90
16871;DHT22;8552;48.120;-1.456;2023-04-03T13:32:30;14.50;99.90
16871;DHT22;8552;48.120;-1.456;2023-04-03T13:34:57;14.40;99.90
16871;DHT22;8552;48.120;-1.456;2023-04-03T13:37:31;14.40;99.90
16871;DHT22;8552;48.120;-1.456;2023-04-03T13:42:35;14.80;99.90
16871;DHT22;8552;48.120;-1.456;2023-04-03T13:47:48;14.20;99.90
16871;DHT22;8552;48.120;-1.456;2023-04-03T13:50:24;13.90;99.90
16871;DHT22;8552;48.120;-1.456;2023-04-03T13:55:26;14.10;99.90
16871;DHT22;8552;48.120;-1.456;2023-04-03T13:58:37;14.80;99.90
16871;DHT22;8552;48.120;-1.456;2023-04-03T14:00:54;13.70;98.10
16871;DHT22;8552;48.120;-1.456;2023-04-03T14:03:43;13.50;99.90
16871;DHT22;8552;48.120;-1.456;2023-04-03T14:06:15;14.00;99.90
16871;DHT22;8552;48.120;-1.456;2023-04-03T14:08:42;14.00;99.90
16871;DHT22;8552;48.120;-1.456;2023-04-03T14:11:16;13.50;99.90
16871;DHT22;8552;48.120;-1.456;2023-04-03T14:13:43;13.90;99.90
16871;DHT22;8552;48.120;-1.456;2023-04-03T14:16:20;14.10;99.90
16871;DHT22;8552;48.120;-1.456;2023-04-03T14:18:47;14.50;99.90
16871;DHT22;8552;48.120;-1.456;2023-04-03T14:21:14;14.70;99.90
16871;DHT22;8552;48.120;-1.456;2023-04-03T14:23:40;14.20;97.60
16871;DHT22;8552;48.120;-1.456;2023-04-03T14:26:25;13.10;99.90
16871;DHT22;8552;48.120;-1.456;2023-04-03T14:28:54;14.10;99.90
16871;DHT22;8552;48.120;-1.456;2023-04-03T14:31:21;13.60;99.90
16871;DHT22;8552;48.120;-1.456;2023-04-03T14:33:48;13.80;99.80
16871;DHT22;8552;48.120;-1.456;2023-04-03T14:36:23;14.20;99.90
16871;DHT22;8552;48.120;-1.456;2023-04-03T14:38:51;14.90;99.90
16871;DHT22;8552;48.120;-1.456;2023-04-03T14:41:20;15.00;99.10
16871;DHT22;8552;48.120;-1.456;2023-04-03T14:43:47;14.70;98.30
16871;DHT22;8552;48.120;-1.456;2023-04-03T14:46:26;14.90;98.20
16871;DHT22;8552;48.120;-1.456;2023-04-03T14:48:53;13.70;97.30
16871;DHT22;8552;48.120;-1.456;2023-04-03T14:51:19;13.40;97.00
16871;DHT22;8552;48.120;-1.456;2023-04-03T14:53:45;13.50;98.00
16871;DHT22;8552;48.120;-1.456;2023-04-03T14:56:18;13.60;96.80
16871;DHT22;8552;48.120;-1.456;2023-04-03T14:58:44;13.70;97.20
16871;DHT22;8552;48.120;-1.456;2023-04-03T15:01:13;13.70;99.90
16871;DHT22;8552;48.120;-1.456;2023-04-03T15:03:39;13.70;97.60
16871;DHT22;8552;48.120;-1.456;2023-04-03T15:06:05;14.00;98.10
16871;DHT22;8552;48.120;-1.456;2023-04-03T15:08:31;14.20;99.90
16871;DHT22;8552;48.120;-1.456;2023-04-03T15:10:57;14.40;99.90
16871;DHT22;8552;48.120;-1.456;2023-04-03T15:13:24;14.30;98.10
16871;DHT22;8552;48.120;-1.456;2023-04-03T15:15:51;13.80;98.00
16871;DHT22;8552;48.120;-1.456;2023-04-03T15:18:20;13.90;97.40
16871;DHT22;8552;48.120;-1.456;2023-04-03T15:20:47;13.70;97.30
16871;DHT22;8552;48.120;-1.456;2023-04-03T15:23:14;13.90;97.90
16871;DHT22;8552;48.120;-1.456;2023-04-03T15:25:46;14.30;97.70
16871;DHT22;8552;48.120;-1.456;2023-04-03T15:28:43;14.60;98.20
16871;DHT22;8552;48.120;-1.456;2023-04-03T15:31:08;14.90;97.40
16871;DHT22;8552;48.120;-1.456;2023-04-03T15:33:35;14.80;95.50
16871;DHT22;8552;48.120;-1.456;2023-04-03T15:36:01;14.80;95.80
16871;DHT22;8552;48.120;-1.456;2023-04-03T15:38:27;14.30;96.00
16871;DHT22;8552;48.120;-1.456;2023-04-03T15:40:53;13.90;94.70
16871;DHT22;8552;48.120;-1.456;2023-04-03T15:43:20;14.10;98.10
16871;DHT22;8552;48.120;-1.456;2023-04-03T15:45:46;13.80;96.00
16871;DHT22;8552;48.120;-1.456;2023-04-03T15:48:12;14.20;97.30
16871;DHT22;8552;48.120;-1.456;2023-04-03T15:50:39;14.20;95.10
16871;DHT22;8552;48.120;-1.456;2023-04-03T15:53:05;13.80;95.90
16871;DHT22;8552;48.120;-1.456;2023-04-03T15:55:33;14.10;96.20
16871;DHT22;8552;48.120;-1.456;2023-04-03T15:58:00;14.10;96.80
16871;DHT22;8552;48.120;-1.456;2023-04-03T16:00:26;13.90;95.60
16871;DHT22;8552;48.120;-1.456;2023-04-03T16:02:59;13.70;95.10
16871;DHT22;8552;48.120;-1.456;2023-04-03T16:05:27;13.60;95.40
16871;DHT22;8552;48.120;-1.456;2023-04-03T16:07:52;13.50;95.00
16871;DHT22;8552;48.120;-1.456;2023-04-03T16:10:39;13.40;96.00
16871;DHT22;8552;48.120;-1.456;2023-04-03T16:13:06;14.30;99.90
16871;DHT22;8552;48.120;-1.456;2023-04-03T16:15:36;14.30;97.40
16871;DHT22;8552;48.120;-1.456;2023-04-03T16:18:09;13.70;96.60
16871;DHT22;8552;48.120;-1.456;2023-04-03T16:20:38;13.30;95.80
16871;DHT22;8552;48.120;-1.456;2023-04-03T16:23:04;13.50;98.40
16871;DHT22;8552;48.120;-1.456;2023-04-03T16:25:30;13.50;97.30
16871;DHT22;8552;48.120;-1.456;2023-04-03T16:28:00;13.80;98.10
16871;DHT22;8552;48.120;-1.456;2023-04-03T16:30:29;14.00;96.60
16871;DHT22;8552;48.120;-1.456;2023-04-03T16:32:57;13.80;96.00
16871;DHT22;8552;48.120;-1.456;2023-04-03T16:35:22;13.30;95.00
16871;DHT22;8552;48.120;-1.456;2023-04-03T16:37:48;13.00;95.30
16871;DHT22;8552;48.120;-1.456;2023-04-03T16:40:14;13.20;96.20
16871;DHT22;8552;48.120;-1.456;2023-04-03T16:42:41;13.50;98.70
16871;DHT22;8552;48.120;-1.456;2023-04-03T16:45:07;13.90;97.30
16871;DHT22;8552;48.120;-1.456;2023-04-03T16:47:34;13.20;95.50
16871;DHT22;8552;48.120;-1.456;2023-04-03T16:50:00;13.20;96.60
16871;DHT22;8552;48.120;-1.456;2023-04-03T16:52:25;13.40;96.90
16871;DHT22;8552;48.120;-1.456;2023-04-03T16:54:51;13.40;97.00
16871;DHT22;8552;48.120;-1.456;2023-04-03T16:57:21;13.20;96.80
16871;DHT22;8552;48.120;-1.456;2023-04-03T16:59:50;13.20;97.10
16871;DHT22;8552;48.120;-1.456;2023-04-03T17:02:16;13.30;96.60
16871;DHT22;8552;48.120;-1.456;2023-04-03T17:04:41;13.10;95.90
16871;DHT22;8552;48.120;-1.456;2023-04-03T17:07:10;13.00;96.10
16871;DHT22;8552;48.120;-1.456;2023-04-03T17:09:38;12.80;96.50
16871;DHT22;8552;48.120;-1.456;2023-04-03T17:12:16;12.90;96.70
16871;DHT22;8552;48.120;-1.456;2023-04-03T17:14:42;12.70;94.00
16871;DHT22;8552;48.120;-1.456;2023-04-03T17:17:10;12.80;94.90
16871;DHT22;8552;48.120;-1.456;2023-04-03T17:19:39;12.70;94.10
16871;DHT22;8552;48.120;-1.456;2023-04-03T17:22:07;12.60;94.00
16871;DHT22;8552;48.120;-1.456;2023-04-03T17:24:34;12.70;95.30